Princeton/Rocky Hill (39N)
Princeton, NJ
Field Elevation: 128
Lat: 40°23.94N  Long: 74°39.54W
CTAF/Unicom Freq: 122.7250
   
     For Weather-by-Phone, call (609)-924-3901
Weather Advisories
4/23/2014 09:11 Z
Altimeter 29.58" Hg
Wind 320° @ 13 KT
Gusts 21 KT
Visibility 10 SM
Ceiling OVC034
Temperature 9° C (48° F)
Dewpoint 1° C (34° F)
Relative Humidity 54%
Density Altitude --
Condensation Altitude 4,600 feet
Wind Chill 6° C (43° F)
  Wind and Runways
Indicated Runway = 28
History
 
 
More Info
All DigiWx sites map
 
NOAA Forecast
 
Airport IQ 5010
(OCNJ) Ocean City
(PN44) Upper Gwynedd Heliport
 
about DigiWx
 
FAA Disclaimer: The data displayed is for advisory purposes only and is not to be used for flight planning or operations. For official data, please call (609)-924-3901 to hear the current automated AWOS voice message.
  METAR 39N 230911Z AUTO 32013G21KT 10SM OVC034 09/01 A2958